Latest Weather Observations for Oodnadatta

IDS60801

Issued at 10:41 am CDT Monday 25 March 2019 (issued every 10 minutes, with the page automatically refreshed every 10 minutes)

About weather observations | Map of weather stations | Latest weather observations for SA | Other Formats
Station Details ID: 017043 Name: OODNADATTA AIRPORT Lat: -27.56 Lon: 135.45 Height: 116.5 m
Data from the previous 72 hours. | See also: Recent months at Oodnadatta
Date/Time
CDT
Temp
°C
App
Temp
°C
Dew
Point
°C
Rel
Hum
%
Delta-T
°C
Wind Press
QNH
hPa
Press
MSL
hPa
Rain since
9am
mm
Dir  Spd
km/h
Gust
km/h
Spd
kts
Gust
kts
25/10:30am 22.2 14.9 11.6 51 6.0 SSE 41 50 22 27 1015.7 1015.1 0.0
25/10:00am 22.2 15.2 11.3 50 6.1 SSE 39 50 21 27 1015.3 1014.7 0.0
25/09:30am 21.9 13.8 10.7 49 6.2 SSE 44 52 24 28 1015.0 1014.4 0.0
25/09:00am 21.8 15.2 11.2 51 5.9 SSE 37 46 20 25 1014.8 1014.2 0.0
25/08:30am 21.6 13.7 11.6 53 5.6 S 44 54 24 29 1014.0 1013.4 0.0
25/08:00am 21.9 14.8 13.5 59 4.9 SSE 43 54 23 29 1013.4 1012.7 0.0
25/07:30am 22.1 14.5 13.7 59 4.9 SSE 46 56 25 30 1013.0 1012.3 0.0
25/07:00am 23.2 16.6 12.5 51 6.1 SSE 39 46 21 25 1012.6 1011.9 0.0
25/06:30am 23.6 16.7 12.9 51 6.2 SSE 41 50 22 27 1012.1 1011.4 0.0
25/06:00am 24.2 17.3 14.0 53 6.0 S 43 48 23 26 1011.6 1010.9 0.0
25/05:30am 26.1 23.3 16.4 55 6.0 SSE 26 32 14 17 1011.3 1010.6 0.0
25/05:00am 26.1 23.9 16.9 57 5.7 SE 24 28 13 15 1011.3 1010.6 0.0
25/04:30am 26.3 24.6 17.1 57 5.8 SE 22 28 12 15 1011.1 1010.4 0.0
25/04:00am 26.3 24.0 17.6 58 5.5 ESE 26 33 14 18 1011.0 1010.3 0.0
25/03:30am 26.7 24.1 16.9 55 6.1 ESE 26 35 14 19 1011.0 1010.3 0.0
25/03:00am 27.1 25.3 16.1 51 6.8 SE 20 28 11 15 1011.1 1010.4 0.0
25/02:30am 27.4 24.9 16.1 50 7.0 ESE 24 32 13 17 1010.8 1010.1 0.0
25/02:00am 27.6 25.5 16.2 49 7.1 SE 22 30 12 16 1010.3 1009.7 0.0
25/01:30am 27.8 26.4 17.0 51 6.8 ESE 20 28 11 15 1010.2 1009.6 0.0
25/01:00am 27.9 26.2 17.1 51 6.8 SE 22 28 12 15 1010.2 1009.6 0.0
25/12:30am 28.0 27.0 17.5 52 6.7 ESE 19 24 10 13 1010.1 1009.5 0.0
25/12:00am 28.0 26.9 17.8 54 6.5 SE 20 28 11 15 1009.8 1009.2 0.0
 
Date/Time
CDT
Temp
°C
App
Temp
°C
Dew
Point
°C
Rel
Hum
%
Delta-T
°C
Wind Press
QNH
hPa
Press
MSL
hPa
Rain since
9am
mm
Dir  Spd
km/h
Gust
km/h
Spd
kts
Gust
kts
24/11:30pm 28.2 25.2 17.7 53 6.7 E 30 37 16 20 1009.2 1008.6 0.0
24/11:00pm 29.1 26.7 18.2 51 7.0 ENE 28 37 15 20 1008.9 1008.3 0.0
24/10:30pm 30.2 26.5 16.9 44 8.4 ENE 32 39 17 21 1008.5 1007.9 0.0
24/10:00pm 30.3 27.0 17.0 44 8.4 E 30 39 16 21 1008.4 1007.8 0.0
24/09:30pm 31.0 27.0 17.7 45 8.5 E 35 43 19 23 1008.2 1007.6 0.0
24/09:00pm 31.9 27.3 15.0 36 10.5 ESE 33 43 18 23 1007.7 1007.1 0.0
24/08:30pm 32.9 27.3 14.5 33 11.4 SE 37 48 20 26 1007.1 1006.5 0.0
24/08:00pm 33.5 27.9 14.5 31 11.7 SSE 37 46 20 25 1006.7 1006.1 0.0
24/07:30pm 34.5 28.5 14.4 30 12.5 SSE 39 50 21 27 1006.3 1005.6 0.0
24/07:00pm 35.9 31.1 14.0 27 13.5 S 32 41 17 22 1005.8 1005.1 0.0
24/06:30pm 37.0 32.7 14.3 26 14.2 SSW 30 44 16 24 1005.4 1004.7 0.0
24/06:00pm 37.5 35.6 14.1 24 14.6 SW 17 28 9 15 1005.2 1004.5 0.0
24/05:30pm 37.4 35.1 14.7 26 14.3 SW 20 30 11 16 1005.4 1004.7 0.0
24/05:00pm 37.0 36.5 14.9 27 13.9 SSW 11 22 6 12 1005.5 1004.8 0.0
24/04:30pm 37.4 35.7 14.7 26 14.3 SW 17 28 9 15 1005.6 1004.9 0.0
24/04:00pm 36.7 36.1 14.6 26 13.8 W 11 19 6 10 1005.9 1005.2 0.0
24/03:30pm 37.2 35.3 15.1 27 14.0 WSW 19 26 10 14 1006.0 1005.3 0.0
24/03:00pm 37.2 36.4 15.1 27 14.0 WNW 13 22 7 12 1006.5 1005.9 0.0
24/02:30pm 36.3 35.0 14.9 28 13.4 NW 15 24 8 13 1006.8 1006.2 0.0
24/02:00pm 36.1 35.9 14.7 28 13.4 WNW 9 19 5 10 1007.3 1006.7 0.0
24/01:30pm 36.3 36.2 14.9 28 13.4 N 9 20 5 11 1007.9 1007.3 0.0
24/01:00pm 34.9 34.2 14.2 28 12.8 N 11 20 6 11 1008.3 1007.7 0.0
24/12:30pm 34.2 31.9 14.1 29 12.4 ENE 19 28 10 15 1008.6 1008.0 0.0
24/12:00pm 33.0 30.3 13.6 31 11.8 E 20 30 11 16 1008.9 1008.3 0.0
24/11:30am 31.5 27.2 13.3 33 11.0 ESE 28 37 15 20 1009.3 1008.7 0.0
24/11:00am 30.3 26.0 13.1 34 10.3 ESE 28 33 15 18 1009.7 1009.1 0.0
24/10:30am 29.2 24.8 13.0 37 9.6 ESE 28 35 15 19 1009.8 1009.2 0.0
24/10:00am 28.4 24.3 13.9 41 8.7 ESE 28 33 15 18 1010.0 1009.4 0.0
24/09:30am 27.4 23.3 13.7 43 8.2 ESE 28 35 15 19 1009.9 1009.3 0.0
24/09:00am 26.5 22.8 13.9 45 7.5 ESE 26 35 14 19 1010.1 1009.5 1.8
24/08:30am 25.7 22.0 13.9 48 7.0 ESE 26 33 14 18 1009.7 1009.1 1.8
24/08:00am 25.3 22.3 13.8 49 6.8 SE 22 32 12 17 1009.7 1009.1 1.8
24/07:30am 25.2 21.4 13.7 49 6.8 SE 26 33 14 18 1009.2 1008.6 1.8
24/07:00am 25.1 21.2 13.3 48 6.9 ESE 26 33 14 18 1008.8 1008.2 1.8
24/06:30am 25.6 21.3 13.1 46 7.3 ESE 28 35 15 19 1008.6 1008.0 1.8
24/06:00am 25.8 21.7 12.6 44 7.7 SE 26 32 14 17 1008.6 1008.0 1.8
24/05:30am 25.8 21.7 12.6 44 7.7 SE 26 33 14 18 1008.2 1007.6 1.8
24/05:00am 26.0 20.8 12.8 44 7.7 ESE 32 41 17 22 1007.6 1007.0 1.8
24/04:30am 26.4 21.0 12.8 43 8.0 SE 33 41 18 22 1007.7 1007.1 1.8
24/04:00am 26.6 21.8 13.0 43 8.0 SE 30 41 16 22 1008.1 1007.5 1.8
24/03:30am 26.8 21.6 12.8 42 8.2 SE 32 41 17 22 1008.3 1007.7 1.8
24/03:00am 26.9 21.4 12.5 40 8.4 ESE 33 48 18 26 1008.8 1008.2 1.8
24/02:54am 26.9 22.0 12.5 40 8.4 ESE 30 48 16 26 1009.0 1008.4 1.8
24/02:30am 27.1 21.9 12.7 41 8.4 SE 32 39 17 21 1009.4 1008.8 1.8
24/02:00am 27.5 22.3 12.7 40 8.7 SE 32 39 17 21 1009.5 1008.9 1.8
24/01:30am 27.7 21.8 13.6 42 8.4 SE 37 48 20 26 1009.7 1009.1 1.8
24/01:00am 28.0 21.7 13.5 41 8.6 SE 39 57 21 31 1009.5 1008.9 1.8
24/12:30am 28.3 21.3 14.2 42 8.5 SE 44 63 24 34 1008.8 1008.2 1.8
24/12:00am 29.5 21.3 12.9 36 9.9 SE 48 72 26 39 1008.1 1007.5 1.8
 
Date/Time
CDT
Temp
°C
App
Temp
°C
Dew
Point
°C
Rel
Hum
%
Delta-T
°C
Wind Press
QNH
hPa
Press
MSL
hPa
Rain since
9am
mm
Dir  Spd
km/h
Gust
km/h
Spd
kts
Gust
kts
23/11:55pm 30.0 22.0 12.4 34 10.4 SSE 46 72 25 39 1008.3 1007.7 1.8
23/11:34pm 30.9 28.3 13.7 35 10.4 S 20 43 11 23 1009.0 1008.4 1.8
23/11:30pm 29.2 29.9 18.9 53 6.7 SSE 13 19 7 10 1009.0 1008.4 1.8
23/11:00pm 30.1 29.6 16.9 45 8.3 E 15 19 8 10 1007.6 1007.0 1.8
23/10:30pm 29.7 28.9 17.2 47 7.9 ESE 17 19 9 10 1007.5 1006.9 1.8
23/10:00pm 30.8 31.2 15.2 38 9.6 ESE 7 11 4 6 1007.3 1006.7 1.8
23/09:30pm 30.7 29.6 16.3 42 9.1 E 17 19 9 10 1007.0 1006.4 1.6
23/09:00pm 32.1 29.6 15.1 35 10.6 SE 22 28 12 15 1006.7 1006.1 1.6
23/08:30pm 32.6 30.6 15.6 36 10.7 E 20 30 11 16 1006.7 1006.1 1.6
23/08:00pm 34.0 32.0 14.0 30 12.3 ESE 17 24 9 13 1005.9 1005.2 1.6
23/07:32pm 32.5 29.9 15.9 36 10.4 SW 24 52 13 28 1006.2 1005.5 1.6
23/07:30pm 33.7 32.2 15.2 33 11.6 SSW 17 46 9 25 1006.5 1005.9 1.6
23/07:00pm 33.9 32.4 15.4 33 11.6 ESE 17 32 9 17 1006.1 1005.4 1.6
23/06:54pm 36.0 33.1 12.3 24 14.3 S 19 33 10 18 1006.0 1005.3 1.6
23/06:33pm 30.5 28.3 19.5 51 7.2 SSW 30 48 16 26 1006.3 1005.6 1.4
23/06:30pm 30.5 26.9 18.6 49 7.7 SSW 35 50 19 27 1006.2 1005.5 1.4
23/06:22pm 30.2 26.9 19.3 52 7.1 SSW 35 50 19 27 1006.1 1005.4 1.4
23/06:00pm 34.1 33.6 17.8 38 10.6 SE 17 30 9 16 1005.4 1004.7 0.8
23/05:30pm 39.4 34.3 10.7 18 17.2 ENE 28 50 15 27 1004.8 1004.1 0.0
23/05:28pm 39.1 33.2 10.4 18 17.1 ENE 32 50 17 27 1004.8 1004.1 0.0
23/05:17pm 39.5 34.6 9.9 17 17.5 NNE 26 46 14 25 1004.6 1003.9 0.0
23/05:00pm 41.0 38.0 9.2 15 18.7 N 15 24 8 13 1004.7 1004.0 0.0
23/04:30pm 41.5 38.8 7.5 13 19.6 WNW 11 22 6 12 1005.0 1004.3 0.0
23/04:00pm 40.6 37.0 6.8 13 19.2 NW 15 28 8 15 1005.4 1004.7 0.0
23/03:30pm 41.2 38.5 7.3 13 19.5 NE 11 32 6 17 1005.7 1005.0 0.0
23/03:00pm 40.6 37.6 7.9 14 18.9 NW 13 24 7 13 1006.1 1005.4 0.0
23/02:30pm 40.1 35.7 7.5 14 18.7 N 20 30 11 16 1006.6 1006.0 0.0
23/02:00pm 40.6 36.3 7.9 14 18.9 N 20 32 11 17 1007.0 1006.4 0.0
23/01:30pm 39.8 33.9 7.3 14 18.6 N 28 37 15 20 1007.4 1006.8 0.0
23/01:00pm 38.9 33.9 9.4 17 17.3 NNW 26 39 14 21 1007.9 1007.3 0.0
23/12:30pm 38.4 33.1 9.9 18 16.8 N 28 39 15 21 1008.4 1007.8 0.0
23/12:00pm 37.9 32.9 9.5 18 16.6 N 26 39 14 21 1008.6 1008.0 0.0
23/11:30am 37.3 30.8 8.2 17 16.6 NE 32 37 17 20 1008.6 1008.0 0.0
23/11:00am 37.0 29.5 6.1 15 17.1 ENE 35 44 19 24 1008.8 1008.2 0.0
23/10:30am 35.6 27.1 3.0 13 17.1 NE 37 46 20 25 1009.0 1008.4 0.0
23/10:00am 34.1 26.5 3.8 15 15.9 ENE 33 43 18 23 1008.9 1008.3 0.0
23/09:30am 32.9 25.4 4.6 17 15.0 ENE 33 43 18 23 1008.6 1008.0 0.0
23/09:00am 31.4 25.0 5.0 19 13.9 NE 28 35 15 19 1008.6 1008.0 0.0
23/08:30am 29.9 24.4 5.9 22 12.8 ENE 24 30 13 16 1008.6 1008.0 0.0
23/08:00am 28.0 23.8 5.6 24 11.7 E 17 22 9 12 1008.2 1007.6 0.0
23/07:30am 27.1 22.8 5.4 25 11.3 E 17 20 9 11 1008.3 1007.7 0.0
23/07:00am 27.0 22.6 4.7 24 11.4 E 17 20 9 11 1008.1 1007.5 0.0
23/06:30am 27.7 22.7 4.7 23 11.8 ENE 20 26 11 14 1008.0 1007.4 0.0
23/06:00am 26.9 22.4 4.0 23 11.6 E 17 19 9 10 1007.8 1007.2 0.0
23/05:30am 27.0 23.2 4.1 23 11.6 E 13 17 7 9 1007.8 1007.2 0.0
23/05:00am 27.4 23.2 3.8 22 11.9 E 15 17 8 9 1007.8 1007.2 0.0
23/04:30am 28.8 23.7 4.3 21 12.6 E 20 24 11 13 1007.6 1007.0 0.0
23/04:00am 28.1 23.3 4.4 22 12.1 ENE 19 20 10 11 1007.6 1007.0 0.0
23/03:30am 27.4 23.0 4.5 23 11.7 ENE 17 19 9 10 1007.7 1007.1 0.0
23/03:00am 26.3 23.3 4.1 24 11.2 SE 9 9 5 5 1007.9 1007.3 0.0
23/02:30am 27.6 24.3 4.6 23 11.8 E 11 13 6 7 1008.1 1007.5 0.0
23/02:00am 28.1 24.1 5.0 23 11.9 E 15 17 8 9 1008.5 1007.9 0.0
23/01:30am 28.7 24.7 4.9 22 12.4 E 15 17 8 9 1008.7 1008.1 0.0
23/01:00am 29.3 25.3 4.7 21 12.7 E 15 17 8 9 1008.7 1008.1 0.0
23/12:30am 29.4 25.4 4.8 21 12.8 E 15 17 8 9 1008.9 1008.3 0.0
23/12:00am 30.5 26.9 5.0 20 13.4 E 13 15 7 8 1009.2 1008.6 0.0
 
Date/Time
CDT
Temp
°C
App
Temp
°C
Dew
Point
°C
Rel
Hum
%
Delta-T
°C
Wind Press
QNH
hPa
Press
MSL
hPa
Rain since
9am
mm
Dir  Spd
km/h
Gust
km/h
Spd
kts
Gust
kts
22/11:30pm 30.2 25.8 4.8 20 13.3 E 17 19 9 10 1009.2 1008.6 0.0
22/11:00pm 29.8 26.1 4.4 20 13.1 ESE 13 15 7 8 1009.2 1008.6 0.0
22/10:30pm 30.7 27.0 4.4 19 13.7 SE 13 15 7 8 1009.1 1008.5 0.0
22/10:00pm 32.3 28.2 4.2 17 14.7 SE 15 17 8 9 1009.0 1008.4 0.0
22/09:30pm 32.7 29.4 4.5 17 14.9 SE 11 13 6 7 1008.8 1008.2 0.0
22/09:00pm 33.6 29.9 4.3 16 15.5 SE 13 17 7 9 1008.3 1007.7 0.0
22/08:30pm 34.7 31.0 4.3 15 16.2 ESE 13 17 7 9 1007.9 1007.3 0.0
22/08:00pm 36.1 32.4 4.4 14 17.0 SE 13 15 7 8 1007.7 1007.1 0.0
22/07:30pm 37.3 32.8 4.3 13 17.8 ESE 17 20 9 11 1007.3 1006.7 0.0
22/07:00pm 37.9 34.2 4.7 13 18.0 SE 13 19 7 10 1007.0 1006.4 0.0
22/06:30pm 38.4 35.0 4.0 12 18.6 SE 11 19 6 10 1006.9 1006.3 0.0
22/06:00pm 38.2 33.6 3.8 12 18.5 SE 17 24 9 13 1006.8 1006.2 0.0
22/05:30pm 38.4 33.9 4.0 12 18.6 SE 17 22 9 12 1006.8 1006.2 0.0
22/05:00pm 38.9 35.2 4.4 12 18.8 S 13 20 7 11 1006.8 1006.2 0.0
22/04:30pm 38.8 35.1 4.3 12 18.8 SW 13 24 7 13 1006.8 1006.2 0.0
22/04:00pm 39.4 35.0 4.7 12 19.0 SSE 17 32 9 17 1007.0 1006.4 0.0
22/03:30pm 38.7 36.1 4.2 12 18.7 ESE 7 15 4 8 1007.5 1006.9 0.0
22/03:00pm 39.1 34.7 4.5 12 18.9 S 17 24 9 13 1007.9 1007.3 0.0
22/02:30pm 38.6 34.8 4.1 12 18.7 ESE 13 19 7 10 1008.6 1008.0 0.0
22/02:00pm 37.2 33.5 4.2 13 17.7 SW 13 20 7 11 1009.1 1008.5 0.0
22/01:30pm 37.0 34.4 4.0 13 17.7 SE 7 15 4 8 1009.6 1009.0 0.0
22/01:00pm 36.4 32.9 3.6 13 17.4 E 11 15 6 8 1010.0 1009.4 0.0
22/12:30pm 35.5 32.5 3.9 14 16.8 N 9 17 5 9 1010.8 1010.1 0.0
22/12:00pm 35.4 32.4 3.9 14 16.7 ENE 9 15 5 8 1011.4 1010.7 0.0
22/11:30am 34.8 31.9 4.4 15 16.2 ESE 9 15 5 8 1011.6 1010.9 0.0
22/11:00am 33.2 29.8 4.0 16 15.3 SE 11 19 6 10 1011.6 1010.9 0.0

Other formats

Comma delimited format used in spreadsheet applications
http://www.bom.gov.au/fwo/IDS60801/IDS60801.94476.axf

JavaScript Object Notation format (JSON) in row-major order
http://www.bom.gov.au/fwo/IDS60801/IDS60801.94476.json

Data quality

Most of these data are generated automatically and are frequently updated. Quality checks on data are not normally performed. It is possible for incorrect values to appear. Refer to information at About Latest Weather Observations and please check the disclaimer before using these data.